Time;durP1;ratioP1;P1;durP2;ratioP2;P2;SDS_P1;SDS_P2;PMS_P1;PMS_P2;Temp;Humidity;BMP_temperature;BMP_pressure;BME280_temperature;BME280_humidity;BME280_pressure;Samples;Min_cycle;Max_cycle;Signal;HPM_P1;HPM_P2
2021/06/16 00:00:13;;;;;;;0.40;0.40;;;17.60;56.30;;;;;;5113822;28;20032;-82
2021/06/16 00:02:40;;;;;;;0.30;0.30;;;17.60;56.40;;;;;;5113998;28;20024;-82
2021/06/16 00:05:08;;;;;;;0.63;0.43;;;17.60;56.50;;;;;;5113988;28;20077;-80
2021/06/16 00:07:34;;;;;;;0.30;0.30;;;17.50;56.50;;;;;;5113803;28;20023;-81
2021/06/16 00:09:59;;;;;;;0.50;0.50;;;17.60;56.60;;;;;;5113718;28;20169;-81
2021/06/16 00:12:26;;;;;;;0.45;0.45;;;17.60;56.60;;;;;;5113462;28;20083;-80
2021/06/16 00:14:54;;;;;;;0.30;0.30;;;17.50;56.60;;;;;;5113628;28;20027;-80
2021/06/16 00:17:19;;;;;;;0.40;0.40;;;17.50;56.70;;;;;;5113605;28;20020;-80
2021/06/16 00:19:45;;;;;;;0.93;0.50;;;17.50;56.90;;;;;;5113350;28;20055;-81
2021/06/16 00:22:11;;;;;;;0.40;0.40;;;17.50;56.90;;;;;;5113791;28;20065;-81
2021/06/16 00:24:37;;;;;;;0.40;0.40;;;17.40;56.90;;;;;;5113781;28;20020;-81
2021/06/16 00:27:04;;;;;;;0.30;0.30;;;17.40;57.00;;;;;;5113162;28;20022;-81
2021/06/16 00:29:29;;;;;;;0.52;0.43;;;17.40;57.00;;;;;;5113636;28;20027;-82
2021/06/16 00:31:55;;;;;;;0.50;0.50;;;17.40;57.10;;;;;;5095202;28;20016;-81
2021/06/16 00:34:20;;;;;;;0.75;0.65;;;17.30;57.10;;;;;;5095410;28;20019;-80
2021/06/16 00:36:47;;;;;;;0.43;0.40;;;17.30;57.30;;;;;;5113643;28;20345;-81
2021/06/16 00:39:13;;;;;;;0.75;0.75;;;17.30;57.30;;;;;;5113336;28;20035;-83
2021/06/16 00:41:39;;;;;;;0.73;0.45;;;17.30;57.40;;;;;;5112998;28;20421;-82
2021/06/16 00:44:05;;;;;;;0.30;0.30;;;17.20;57.40;;;;;;5113507;28;20019;-81
2021/06/16 00:46:34;;;;;;;0.40;0.30;;;17.20;57.50;;;;;;5095267;28;20027;-81
2021/06/16 00:49:00;;;;;;;0.45;0.40;;;17.20;57.50;;;;;;5113407;28;20023;-81
2021/06/16 00:51:25;;;;;;;0.52;0.43;;;17.20;57.50;;;;;;5113300;28;20069;-82
2021/06/16 00:53:51;;;;;;;0.38;0.38;;;17.20;57.60;;;;;;5095285;28;20020;-81
2021/06/16 00:56:17;;;;;;;0.30;0.30;;;17.20;57.60;;;;;;5112959;28;20102;-81
2021/06/16 00:58:43;;;;;;;0.40;0.40;;;17.20;57.60;;;;;;5113255;28;20015;-81
2021/06/16 01:01:14;;;;;;;0.65;0.60;;;17.20;57.60;;;;;;5113335;28;20027;-82
2021/06/16 01:03:45;;;;;;;0.40;0.13;;;17.20;57.60;;;;;;5113481;28;20012;-81
2021/06/16 01:06:33;;;;;;;0.40;0.40;;;17.20;57.50;;;;;;5113378;28;20027;-82
2021/06/16 01:09:12;;;;;;;0.30;0.30;;;17.20;57.50;;;;;;5095154;28;20028;-82
2021/06/16 01:11:57;;;;;;;0.30;0.30;;;17.20;57.40;;;;;;5112871;28;20024;-83
2021/06/16 01:14:42;;;;;;;0.30;0.30;;;17.20;57.50;;;;;;5113076;28;20524;-82
2021/06/16 01:17:09;;;;;;;0.63;0.52;;;17.20;57.50;;;;;;5095014;28;20023;-82
2021/06/16 01:19:50;;;;;;;0.63;0.40;;;17.20;57.60;;;;;;5112919;28;20047;-82
2021/06/16 01:22:39;;;;;;;1.30;0.60;;;17.20;57.60;;;;;;5113060;28;20024;-82
2021/06/16 01:25:08;;;;;;;0.40;0.40;;;17.20;57.60;;;;;;5112922;28;20024;-82
2021/06/16 01:27:36;;;;;;;0.40;0.40;;;17.10;57.60;;;;;;5114866;28;20084;-82
2021/06/16 01:30:03;;;;;;;0.47;0.47;;;17.20;57.60;;;;;;5116836;28;20053;-82
2021/06/16 01:32:30;;;;;;;0.30;0.30;;;17.20;57.60;;;;;;5116749;28;20027;-81
2021/06/16 01:34:56;;;;;;;0.40;0.30;;;17.20;57.60;;;;;;5116712;28;20027;-82
2021/06/16 01:37:22;;;;;;;0.70;0.47;;;17.20;57.50;;;;;;5116672;28;20444;-82
2021/06/16 01:39:48;;;;;;;0.70;0.60;;;17.30;58.20;;;;;;5116230;28;20058;-82
2021/06/16 01:42:18;;;;;;;0.40;0.40;;;17.20;57.50;;;;;;5116657;28;20015;-82
2021/06/16 01:44:45;;;;;;;0.30;0.30;;;17.30;57.60;;;;;;5116563;28;20016;-82
2021/06/16 01:47:11;;;;;;;0.57;0.38;;;17.20;57.60;;;;;;5116501;28;20020;-82
2021/06/16 01:49:37;;;;;;;0.40;0.40;;;17.20;57.60;;;;;;5116449;28;20026;-82
2021/06/16 01:52:05;;;;;;;0.30;0.30;;;17.20;57.70;;;;;;5116326;28;20038;-82
2021/06/16 01:54:32;;;;;;;0.45;0.30;;;17.20;57.70;;;;;;5115846;28;20027;-82
2021/06/16 01:56:58;;;;;;;0.55;0.45;;;17.20;57.70;;;;;;5116241;28;20102;-83
2021/06/16 01:59:25;;;;;;;0.30;0.30;;;17.20;57.80;;;;;;5116290;28;20422;-82
2021/06/16 02:01:51;;;;;;;0.30;0.30;;;17.20;57.80;;;;;;5116255;28;20019;-83
2021/06/16 02:04:17;;;;;;;0.30;0.30;;;17.20;57.90;;;;;;5098059;28;20106;-83
2021/06/16 02:06:47;;;;;;;0.40;0.40;;;17.20;58.00;;;;;;5116127;28;20115;-82
2021/06/16 02:09:15;;;;;;;0.80;0.50;;;17.20;58.00;;;;;;5115614;28;20023;-81
2021/06/16 02:11:43;;;;;;;1.13;0.40;;;17.20;58.10;;;;;;5116319;28;20040;-82
2021/06/16 02:14:11;;;;;;;0.70;0.30;;;17.20;58.00;;;;;;5097661;28;20410;-82
2021/06/16 02:16:39;;;;;;;0.50;0.20;;;17.20;58.00;;;;;;5115812;28;20023;-82
2021/06/16 02:19:11;;;;;;;1.38;0.40;;;17.20;58.00;;;;;;5097195;28;20471;-82
2021/06/16 02:21:38;;;;;;;0.30;0.30;;;17.20;58.00;;;;;;5115894;28;20020;-83
2021/06/16 02:24:04;;;;;;;0.32;0.25;;;17.20;58.00;;;;;;5115387;28;20015;-82
2021/06/16 02:26:30;;;;;;;0.35;0.32;;;17.10;58.00;;;;;;5116572;28;20023;-82
2021/06/16 02:28:55;;;;;;;0.40;0.35;;;17.10;58.10;;;;;;5116604;28;20019;-83
2021/06/16 02:31:21;;;;;;;0.68;0.47;;;17.10;58.20;;;;;;5115908;28;20034;-82
2021/06/16 02:33:51;;;;;;;0.30;0.30;;;17.10;58.20;;;;;;5115867;28;20080;-83
2021/06/16 02:36:22;;;;;;;0.47;0.47;;;17.10;58.20;;;;;;5115382;28;20019;-81
2021/06/16 02:38:57;;;;;;;0.40;0.40;;;17.10;58.30;;;;;;5115647;28;20027;-82
2021/06/16 02:41:24;;;;;;;0.60;0.40;;;17.00;58.30;;;;;;5115510;28;20031;-81
2021/06/16 02:43:50;;;;;;;0.63;0.57;;;17.10;58.40;;;;;;5115507;28;20023;-81
2021/06/16 02:46:17;;;;;;;0.38;0.30;;;17.00;58.40;;;;;;5115402;28;20460;-81
2021/06/16 02:48:47;;;;;;;0.30;0.30;;;17.00;58.40;;;;;;5115170;28;20042;-83
2021/06/16 02:51:13;;;;;;;0.25;0.25;;;17.00;58.40;;;;;;5114761;28;20016;-83
2021/06/16 02:53:42;;;;;;;0.40;0.40;;;17.00;58.40;;;;;;5115040;28;20448;-82
2021/06/16 02:56:09;;;;;;;0.28;0.28;;;17.00;58.40;;;;;;5115128;28;20024;-83
2021/06/16 02:58:39;;;;;;;0.40;0.40;;;17.00;58.50;;;;;;5096818;28;20072;-82
2021/06/16 03:01:08;;;;;;;0.30;0.30;;;17.00;58.60;;;;;;5115068;28;20106;-82
2021/06/16 03:03:35;;;;;;;0.45;0.45;;;16.90;58.60;;;;;;5096406;28;20329;-82
2021/06/16 03:06:01;;;;;;;0.30;0.30;;;16.90;58.60;;;;;;5096543;28;20031;-83
2021/06/16 03:08:28;;;;;;;1.20;0.38;;;16.90;58.70;;;;;;5096794;28;20065;-83
2021/06/16 03:10:57;;;;;;;1.55;0.50;;;16.90;58.70;;;;;;5096663;28;20118;-82
2021/06/16 03:13:25;;;;;;;0.50;0.50;;;16.90;58.80;;;;;;5114817;28;20019;-83
2021/06/16 03:15:51;;;;;;;0.55;0.40;;;16.90;58.80;;;;;;5114719;28;20015;-83
2021/06/16 03:18:21;;;;;;;0.65;0.63;;;16.80;58.80;;;;;;5096377;28;20023;-83
2021/06/16 03:20:46;;;;;;;0.50;0.50;;;16.80;58.90;;;;;;5114206;28;20050;-83
2021/06/16 03:23:13;;;;;;;0.35;0.35;;;16.80;58.90;;;;;;5114664;28;20020;-84
2021/06/16 03:25:39;;;;;;;0.40;0.40;;;16.80;58.90;;;;;;5114539;28;20023;-82
2021/06/16 03:28:06;;;;;;;0.57;0.50;;;16.80;59.00;;;;;;5114636;28;20073;-83
2021/06/16 03:30:33;;;;;;;0.60;0.60;;;16.80;59.10;;;;;;5114590;28;20107;-82
2021/06/16 03:33:00;;;;;;;1.02;0.70;;;16.80;59.10;;;;;;5114531;28;20081;-83
2021/06/16 03:35:26;;;;;;;0.30;0.30;;;16.70;59.10;;;;;;5114157;28;20028;-83
2021/06/16 03:37:54;;;;;;;0.52;0.52;;;16.70;59.10;;;;;;5114480;28;20103;-84
2021/06/16 03:40:23;;;;;;;0.35;0.35;;;16.70;59.10;;;;;;5114199;28;20032;-83
2021/06/16 03:42:50;;;;;;;0.60;0.47;;;16.80;59.20;;;;;;5114379;28;20073;-83
2021/06/16 03:45:15;;;;;;;0.40;0.40;;;16.80;59.20;;;;;;5114083;28;20062;-83
2021/06/16 03:47:44;;;;;;;0.50;0.50;;;16.80;59.20;;;;;;5114290;28;20212;-83
2021/06/16 03:50:15;;;;;;;0.50;0.50;;;16.80;59.30;;;;;;5113346;28;20031;-82
2021/06/16 03:52:42;;;;;;;0.50;0.50;;;16.80;59.20;;;;;;5114244;28;20016;-82
2021/06/16 03:55:09;;;;;;;0.30;0.30;;;16.80;59.90;;;;;;5114160;28;20031;-83
2021/06/16 03:57:35;;;;;;;0.52;0.52;;;16.80;59.30;;;;;;5095923;28;20563;-83
2021/06/16 04:00:03;;;;;;;0.32;0.28;;;16.80;59.30;;;;;;5113848;28;20035;-83
2021/06/16 04:02:29;;;;;;;1.45;0.60;;;16.80;59.30;;;;;;5113922;28;20027;-83
2021/06/16 04:04:58;;;;;;;0.85;0.85;;;16.90;59.40;;;;;;5113634;28;20031;-83
2021/06/16 04:07:24;;;;;;;0.82;0.57;;;16.90;59.40;;;;;;5113981;28;20012;-83
2021/06/16 04:09:53;;;;;;;1.00;0.52;;;16.90;59.40;;;;;;5095686;28;20460;-83
2021/06/16 04:12:20;;;;;;;0.40;0.40;;;16.90;59.50;;;;;;5095670;28;20102;-83
2021/06/16 04:14:47;;;;;;;0.57;0.52;;;16.90;59.40;;;;;;5095952;28;20069;-84
2021/06/16 04:17:15;;;;;;;0.40;0.40;;;17.00;59.50;;;;;;5095823;28;20023;-84
2021/06/16 04:19:40;;;;;;;0.73;0.73;;;17.00;59.50;;;;;;5113248;28;20047;-83
2021/06/16 04:22:06;;;;;;;0.47;0.47;;;17.00;59.50;;;;;;5113873;28;20457;-84
2021/06/16 04:24:32;;;;;;;0.38;0.38;;;17.00;59.50;;;;;;5113765;28;20033;-83
2021/06/16 04:26:57;;;;;;;0.32;0.32;;;17.00;59.50;;;;;;5113660;28;20048;-83
2021/06/16 04:29:23;;;;;;;1.20;0.50;;;17.10;59.60;;;;;;5113801;28;20103;-82
2021/06/16 04:31:49;;;;;;;0.47;0.47;;;17.10;59.50;;;;;;5113960;28;20088;-82
2021/06/16 04:34:14;;;;;;;0.40;0.40;;;17.10;59.50;;;;;;5113462;28;20016;-82
2021/06/16 04:36:40;;;;;;;0.25;0.25;;;17.20;59.50;;;;;;5113832;28;20023;-83
2021/06/16 04:39:05;;;;;;;0.30;0.30;;;17.20;59.50;;;;;;5113569;28;20027;-76
2021/06/16 04:41:31;;;;;;;0.30;0.30;;;17.20;59.50;;;;;;5113380;28;20035;-80
2021/06/16 04:43:56;;;;;;;0.90;0.57;;;17.20;59.50;;;;;;5113768;28;20019;-80
2021/06/16 04:46:25;;;;;;;0.55;0.40;;;17.20;59.60;;;;;;5113354;28;20031;-78
2021/06/16 04:48:50;;;;;;;0.20;0.20;;;17.20;59.50;;;;;;5113005;28;20020;-77
2021/06/16 04:51:16;;;;;;;0.50;0.50;;;17.20;59.60;;;;;;5113457;28;20072;-78
2021/06/16 04:53:44;;;;;;;1.50;1.40;;;17.20;59.60;;;;;;5113291;28;20035;-75
2021/06/16 04:56:10;;;;;;;0.63;0.63;;;17.30;59.70;;;;;;5113307;28;20085;-75
2021/06/16 04:58:36;;;;;;;0.43;0.43;;;17.30;59.70;;;;;;5113365;28;20023;-76
2021/06/16 05:01:01;;;;;;;0.50;0.50;;;17.30;59.70;;;;;;5113372;28;20454;-75
2021/06/16 05:03:27;;;;;;;0.75;0.73;;;17.40;59.70;;;;;;5116335;28;20020;-77
2021/06/16 05:05:53;;;;;;;0.63;0.63;;;17.40;59.70;;;;;;5117072;28;20023;-76
2021/06/16 05:08:18;;;;;;;1.17;0.80;;;17.50;59.70;;;;;;5117164;28;20023;-77
2021/06/16 05:10:44;;;;;;;0.50;0.50;;;17.50;59.70;;;;;;5117191;28;20353;-77
2021/06/16 05:13:09;;;;;;;0.50;0.32;;;17.50;59.70;;;;;;5117114;28;20494;-77
2021/06/16 05:15:35;;;;;;;0.50;0.50;;;17.60;59.70;;;;;;5116946;28;20077;-76
2021/06/16 05:18:05;;;;;;;1.05;0.60;;;17.60;59.70;;;;;;5116539;28;20368;-76
2021/06/16 05:20:30;;;;;;;1.70;0.70;;;17.70;59.70;;;;;;5098421;28;20399;-76
2021/06/16 05:22:57;;;;;;;0.50;0.50;;;17.70;59.70;;;;;;5116905;28;20482;-78
2021/06/16 05:25:23;;;;;;;0.50;0.50;;;17.70;59.80;;;;;;5116878;28;20112;-76
2021/06/16 05:27:49;;;;;;;0.50;0.50;;;17.70;59.80;;;;;;5098432;28;20050;-77
2021/06/16 05:30:16;;;;;;;0.60;0.60;;;17.80;59.90;;;;;;5116785;28;20126;-78
2021/06/16 05:32:42;;;;;;;0.63;0.57;;;17.80;59.90;;;;;;5116229;28;20103;-77
2021/06/16 05:35:08;;;;;;;0.52;0.47;;;17.80;59.90;;;;;;5116706;28;20015;-78
2021/06/16 05:37:34;;;;;;;0.47;0.47;;;17.90;60.00;;;;;;5116610;28;20069;-77
2021/06/16 05:39:59;;;;;;;0.40;0.40;;;18.00;60.00;;;;;;5116605;28;20035;-77
2021/06/16 05:42:25;;;;;;;0.50;0.50;;;18.00;59.90;;;;;;5097959;28;20020;-77
2021/06/16 05:44:50;;;;;;;0.20;0.20;;;18.10;59.90;;;;;;5097830;28;20023;-78
2021/06/16 05:47:16;;;;;;;0.40;0.40;;;18.20;59.90;;;;;;5116496;28;20095;-77
2021/06/16 05:49:42;;;;;;;0.95;0.70;;;18.20;59.80;;;;;;5098007;28;20024;-78
2021/06/16 05:52:07;;;;;;;0.63;0.63;;;18.30;60.40;;;;;;5116070;28;20012;-78
2021/06/16 05:54:37;;;;;;;0.73;0.68;;;18.40;59.70;;;;;;5116372;28;20020;-78
2021/06/16 05:57:02;;;;;;;0.63;0.50;;;18.50;59.70;;;;;;5116275;28;20020;-76
2021/06/16 05:59:28;;;;;;;0.50;0.50;;;18.60;59.70;;;;;;5115852;28;20096;-78
2021/06/16 06:01:53;;;;;;;0.55;0.55;;;18.70;59.60;;;;;;5116183;28;20152;-77
2021/06/16 06:04:19;;;;;;;0.93;0.80;;;18.70;59.60;;;;;;5097888;28;20012;-79
2021/06/16 06:06:44;;;;;;;0.40;0.40;;;18.80;59.60;;;;;;5115930;28;20376;-78
2021/06/16 06:09:10;;;;;;;0.98;0.70;;;18.90;59.50;;;;;;5115929;28;20081;-78
2021/06/16 06:11:37;;;;;;;0.60;0.60;;;19.00;59.40;;;;;;5116032;28;20030;-75
2021/06/16 06:14:03;;;;;;;1.00;0.68;;;19.10;59.30;;;;;;5114862;28;20026;-77
2021/06/16 06:16:29;;;;;;;0.70;0.70;;;19.20;59.20;;;;;;5097618;28;20028;-77
2021/06/16 06:18:54;;;;;;;0.70;0.70;;;19.30;59.20;;;;;;5115800;28;20034;-76
2021/06/16 06:21:20;;;;;;;0.50;0.50;;;19.40;59.20;;;;;;5115441;28;20097;-75
2021/06/16 06:23:45;;;;;;;0.47;0.47;;;19.40;59.20;;;;;;5115776;28;20095;-77
2021/06/16 06:26:11;;;;;;;0.70;0.70;;;19.60;59.20;;;;;;5115598;28;20462;-76
2021/06/16 06:28:38;;;;;;;0.68;0.60;;;19.70;59.10;;;;;;5115180;28;20410;-75
2021/06/16 06:31:04;;;;;;;0.75;0.57;;;19.70;59.10;;;;;;5115642;28;20016;-74
2021/06/16 06:33:30;;;;;;;0.77;0.77;;;19.80;59.10;;;;;;5115530;28;20111;-76
2021/06/16 06:35:55;;;;;;;2.83;0.98;;;19.80;59.10;;;;;;5115414;28;20095;-73
2021/06/16 06:38:21;;;;;;;0.47;0.47;;;19.80;59.10;;;;;;5115485;28;20496;-75
2021/06/16 06:40:46;;;;;;;0.70;0.70;;;19.90;59.10;;;;;;5115161;28;20042;-75
2021/06/16 06:43:12;;;;;;;1.45;0.70;;;19.90;59.10;;;;;;5114876;28;20022;-77
2021/06/16 06:45:38;;;;;;;0.80;0.65;;;20.10;59.10;;;;;;5115210;28;20020;-75
2021/06/16 06:48:03;;;;;;;1.13;0.98;;;20.10;59.10;;;;;;5115088;28;20075;-75
2021/06/16 06:50:32;;;;;;;1.30;1.25;;;20.20;59.00;;;;;;5115034;28;20068;-76
2021/06/16 06:52:57;;;;;;;0.47;0.47;;;20.30;59.00;;;;;;5115141;28;20446;-74
2021/06/16 06:55:23;;;;;;;0.63;0.50;;;20.30;58.90;;;;;;5115079;28;20288;-76
2021/06/16 06:57:49;;;;;;;0.60;0.60;;;20.40;58.90;;;;;;5096311;28;20020;-74
2021/06/16 07:00:15;;;;;;;0.40;0.40;;;20.60;58.80;;;;;;5114740;28;20542;-75
2021/06/16 07:02:43;;;;;;;0.50;0.50;;;20.70;58.70;;;;;;5114976;28;20073;-75
2021/06/16 07:05:09;;;;;;;0.30;0.30;;;20.80;58.60;;;;;;5114927;28;20077;-74
2021/06/16 07:07:35;;;;;;;0.65;0.65;;;20.90;58.60;;;;;;5114696;28;20024;-74
2021/06/16 07:10:00;;;;;;;0.80;0.80;;;21.00;58.50;;;;;;5114782;28;20030;-75
2021/06/16 07:12:26;;;;;;;0.98;0.82;;;21.10;58.50;;;;;;5114422;28;20031;-77
2021/06/16 07:14:53;;;;;;;1.02;0.93;;;21.20;58.40;;;;;;5114746;28;20066;-76
2021/06/16 07:17:19;;;;;;;0.75;0.75;;;21.30;58.30;;;;;;5114824;28;20526;-76
2021/06/16 07:19:44;;;;;;;0.93;0.50;;;21.40;58.30;;;;;;5114318;28;20071;-76
2021/06/16 07:22:12;;;;;;;0.80;0.80;;;21.50;58.10;;;;;;5096377;28;20030;-75
2021/06/16 07:24:38;;;;;;;0.60;0.60;;;21.60;58.00;;;;;;5113907;28;20023;-76
2021/06/16 07:27:04;;;;;;;1.08;0.65;;;21.70;57.90;;;;;;5114048;28;20495;-76
2021/06/16 07:29:29;;;;;;;0.90;0.80;;;21.80;57.90;;;;;;5114550;28;20062;-76
2021/06/16 07:31:55;;;;;;;0.50;0.50;;;22.00;57.80;;;;;;5114428;28;20016;-73
2021/06/16 07:34:20;;;;;;;0.47;0.47;;;22.10;57.60;;;;;;5095939;28;20018;-74
2021/06/16 07:36:46;;;;;;;0.60;0.60;;;22.20;57.50;;;;;;5114358;28;20541;-75
2021/06/16 07:39:11;;;;;;;0.50;0.43;;;22.30;57.50;;;;;;5114168;28;20029;-75
2021/06/16 07:41:37;;;;;;;0.75;0.60;;;22.40;57.50;;;;;;5113857;28;20052;-76
2021/06/16 07:44:02;;;;;;;0.50;0.50;;;22.50;57.40;;;;;;5114094;28;20413;-75
2021/06/16 07:46:28;;;;;;;1.00;0.85;;;22.60;57.30;;;;;;5114189;28;20027;-74
2021/06/16 07:48:54;;;;;;;0.47;0.40;;;22.60;57.20;;;;;;5114117;28;20383;-75
2021/06/16 07:51:20;;;;;;;0.45;0.45;;;22.70;57.20;;;;;;5114043;28;20024;-76
2021/06/16 07:53:46;;;;;;;0.80;0.80;;;22.80;57.10;;;;;;5114127;28;20026;-75
2021/06/16 07:56:15;;;;;;;0.43;0.43;;;22.90;57.10;;;;;;5113481;28;20023;-74
2021/06/16 07:58:43;;;;;;;1.27;0.50;;;22.90;57.00;;;;;;5113954;28;20026;-74
2021/06/16 08:01:09;;;;;;;0.60;0.60;;;23.00;56.90;;;;;;5113879;28;20464;-76
2021/06/16 08:03:34;;;;;;;0.73;0.52;;;23.10;56.80;;;;;;5113859;28;20023;-76
2021/06/16 08:06:00;;;;;;;0.45;0.40;;;23.20;56.80;;;;;;5113854;28;20031;-75
2021/06/16 08:08:26;;;;;;;0.30;0.30;;;23.20;56.70;;;;;;5095576;28;20525;-75
2021/06/16 08:10:51;;;;;;;0.40;0.40;;;23.30;56.80;;;;;;5113379;28;20629;-75
2021/06/16 08:13:18;;;;;;;0.30;0.30;;;23.30;56.80;;;;;;5113747;28;20023;-73
2021/06/16 08:15:44;;;;;;;0.40;0.40;;;23.30;56.70;;;;;;5113882;28;20027;-75
2021/06/16 08:18:10;;;;;;;0.30;0.30;;;23.40;56.70;;;;;;5113561;28;20024;-74
2021/06/16 08:20:36;;;;;;;0.60;0.60;;;23.50;56.60;;;;;;5113425;28;20035;-74
2021/06/16 08:23:03;;;;;;;0.43;0.43;;;23.50;56.40;;;;;;5113590;28;20026;-78
2021/06/16 08:25:28;;;;;;;0.38;0.38;;;23.60;56.40;;;;;;5113031;28;20015;-75
2021/06/16 08:27:54;;;;;;;0.40;0.40;;;23.70;56.40;;;;;;5113526;28;20432;-73
2021/06/16 08:30:20;;;;;;;0.30;0.30;;;23.80;56.30;;;;;;5113476;28;20108;-75
2021/06/16 08:32:46;;;;;;;0.82;0.70;;;23.90;56.20;;;;;;5113406;28;20521;-75
2021/06/16 08:35:12;;;;;;;0.40;0.40;;;24.00;56.00;;;;;;5113640;28;20032;-75
2021/06/16 08:37:38;;;;;;;0.40;0.40;;;24.10;55.90;;;;;;5117709;28;20030;-74
2021/06/16 08:40:05;;;;;;;1.80;0.77;;;24.20;55.90;;;;;;5117212;28;20036;-75
2021/06/16 08:42:31;;;;;;;0.68;0.60;;;24.30;55.80;;;;;;5117566;28;20024;-74
2021/06/16 08:44:57;;;;;;;0.55;0.52;;;24.30;55.80;;;;;;5117435;28;20020;-75
2021/06/16 08:47:24;;;;;;;0.63;0.63;;;24.30;55.80;;;;;;5117612;28;20084;-75
2021/06/16 08:49:51;;;;;;;0.88;0.65;;;24.40;55.80;;;;;;5117536;28;20065;-75
2021/06/16 08:52:17;;;;;;;0.50;0.47;;;24.50;55.80;;;;;;5117405;28;20027;-75
2021/06/16 08:54:43;;;;;;;1.48;0.60;;;24.50;55.70;;;;;;5098636;28;20028;-75
2021/06/16 08:57:09;;;;;;;1.45;0.88;;;24.70;55.70;;;;;;5117314;28;20126;-75
2021/06/16 08:59:35;;;;;;;0.55;0.50;;;24.80;55.50;;;;;;5117125;28;20028;-75
2021/06/16 09:02:02;;;;;;;0.60;0.60;;;24.80;55.50;;;;;;5117332;28;20027;-73
2021/06/16 09:05:00;;;;;;;0.50;0.50;;;24.90;55.30;;;;;;5117306;28;20034;-73
2021/06/16 09:07:32;;;;;;;1.07;0.60;;;25.00;55.30;;;;;;5061346;28;20031;-74
2021/06/16 09:10:11;;;;;;;1.05;0.73;;;25.00;55.20;;;;;;5098485;28;20035;-74
2021/06/16 09:12:54;;;;;;;0.43;0.43;;;25.10;55.30;;;;;;5117317;28;20038;-74
2021/06/16 09:15:22;;;;;;;0.90;0.60;;;25.10;55.30;;;;;;5117111;28;20020;-73
2021/06/16 09:18:06;;;;;;;0.77;0.77;;;25.20;55.20;;;;;;5117058;28;20028;-73
2021/06/16 09:20:36;;;;;;;0.70;0.70;;;25.40;55.10;;;;;;5095092;28;20052;-74
2021/06/16 09:23:09;;;;;;;0.40;0.40;;;25.50;55.00;;;;;;5096267;28;20482;-76
2021/06/16 09:25:35;;;;;;;0.40;0.38;;;25.50;54.90;;;;;;5096385;28;20101;-74
2021/06/16 09:28:01;;;;;;;0.70;0.70;;;25.50;54.90;;;;;;5095259;28;20020;-74
2021/06/16 09:30:28;;;;;;;0.77;0.77;;;25.50;55.00;;;;;;5096363;28;20442;-74
2021/06/16 09:32:57;;;;;;;0.55;0.55;;;25.50;55.00;;;;;;5096380;28;20099;-74
2021/06/16 09:35:26;;;;;;;0.80;0.80;;;25.50;55.10;;;;;;5096207;28;20024;-73
2021/06/16 09:37:52;;;;;;;0.60;0.60;;;25.60;55.00;;;;;;5095894;28;20013;-75
2021/06/16 09:40:29;;;;;;;0.65;0.60;;;25.60;55.00;;;;;;5094870;28;20488;-75
2021/06/16 09:43:00;;;;;;;0.80;0.70;;;25.70;54.90;;;;;;5096338;28;20024;-76
2021/06/16 09:45:27;;;;;;;0.60;0.60;;;25.70;54.80;;;;;;5096085;28;20016;-75
2021/06/16 09:47:52;;;;;;;0.80;0.80;;;25.70;54.80;;;;;;5095243;28;20020;-75
2021/06/16 09:50:23;;;;;;;1.42;1.33;;;25.70;54.70;;;;;;5096006;28;20031;-74
2021/06/16 09:52:49;;;;;;;1.10;0.73;;;25.80;54.60;;;;;;5095556;28;20530;-75
2021/06/16 09:55:20;;;;;;;0.52;0.52;;;25.80;54.50;;;;;;5095825;28;20028;-76
2021/06/16 09:58:04;;;;;;;0.82;0.73;;;26.00;54.40;;;;;;5095682;28;20103;-75
2021/06/16 10:00:35;;;;;;;0.50;0.50;;;26.10;54.20;;;;;;5095799;28;20032;-75
2021/06/16 10:03:06;;;;;;;0.60;0.60;;;26.20;54.20;;;;;;5096028;28;20069;-75
2021/06/16 10:05:32;;;;;;;0.60;0.60;;;26.30;53.90;;;;;;5095754;28;20028;-75
2021/06/16 10:07:57;;;;;;;0.60;0.60;;;26.30;54.10;;;;;;5095133;28;20434;-75
2021/06/16 10:10:23;;;;;;;0.40;0.40;;;26.30;54.10;;;;;;5094195;28;20050;-74
2021/06/16 10:12:52;;;;;;;0.40;0.40;;;26.40;54.10;;;;;;5095548;28;20020;-75
2021/06/16 10:15:19;;;;;;;0.67;0.67;;;26.50;53.80;;;;;;5095621;28;20107;-74
2021/06/16 10:17:46;;;;;;;0.60;0.38;;;26.60;53.80;;;;;;5094426;28;20274;-77
2021/06/16 10:20:14;;;;;;;0.47;0.40;;;26.70;53.70;;;;;;5102042;28;20047;-76
2021/06/16 10:22:40;;;;;;;0.50;0.50;;;26.80;53.60;;;;;;5096928;28;20380;-76
2021/06/16 10:25:06;;;;;;;0.55;0.55;;;27.00;53.50;;;;;;5115725;28;20027;-75
2021/06/16 10:27:42;;;;;;;0.80;0.70;;;27.10;53.30;;;;;;5115553;28;20026;-74
2021/06/16 10:30:13;;;;;;;0.45;0.45;;;27.30;53.30;;;;;;5115544;28;20472;-74
2021/06/16 10:32:41;;;;;;;0.40;0.40;;;27.40;53.30;;;;;;5115592;28;20026;-76
2021/06/16 10:35:33;;;;;;;0.60;0.60;;;27.30;53.20;;;;;;5114976;28;20069;-75
2021/06/16 10:38:18;;;;;;;0.60;0.60;;;27.30;53.30;;;;;;5115485;28;20440;-75
2021/06/16 10:40:51;;;;;;;0.50;0.50;;;27.20;53.50;;;;;;5097027;28;20035;-76
2021/06/16 10:43:18;;;;;;;0.50;0.50;;;27.20;53.60;;;;;;5115215;28;20030;-75
2021/06/16 10:45:52;;;;;;;0.50;0.50;;;27.20;53.40;;;;;;5115374;28;20024;-75
2021/06/16 10:48:18;;;;;;;0.50;0.50;;;27.30;53.30;;;;;;5115427;28;20016;-76
2021/06/16 10:50:47;;;;;;;0.63;0.57;;;27.50;53.20;;;;;;5096697;28;20035;-76
2021/06/16 10:53:18;;;;;;;0.70;0.70;;;27.70;53.00;;;;;;5115217;28;20608;-76
2021/06/16 10:56:03;;;;;;;0.40;0.40;;;27.80;53.00;;;;;;5115049;28;20104;-76
2021/06/16 10:58:33;;;;;;;0.85;0.68;;;28.00;52.80;;;;;;5114879;28;20103;-74
2021/06/16 11:01:08;;;;;;;1.00;0.77;;;27.90;52.80;;;;;;5114080;28;20537;-75
2021/06/16 11:03:53;;;;;;;0.70;0.70;;;28.00;52.90;;;;;;5096636;28;20023;-75
2021/06/16 11:09:08;;;;;;;0.77;0.77;;;28.10;52.70;;;;;;5114663;28;20028;-76
2021/06/16 11:11:53;;;;;;;0.50;0.50;;;28.10;52.80;;;;;;5096471;28;20464;-75
2021/06/16 11:14:38;;;;;;;0.60;0.60;;;28.20;52.70;;;;;;5079082;28;20165;-75
2021/06/16 11:17:31;;;;;;;0.60;0.60;;;28.30;52.60;;;;;;5114468;28;20425;-77
2021/06/16 11:19:56;;;;;;;0.63;0.63;;;28.50;52.60;;;;;;5113712;28;20060;-75
2021/06/16 11:22:25;;;;;;;1.15;0.50;;;29.10;52.10;;;;;;5096284;28;20090;-76
2021/06/16 11:25:18;;;;;;;0.50;0.50;;;29.90;51.30;;;;;;5114464;28;20019;-76
2021/06/16 11:28:10;;;;;;;0.30;0.30;;;30.80;50.30;;;;;;5096134;28;20089;-76
2021/06/16 11:30:54;;;;;;;0.60;0.60;;;31.40;50.00;;;;;;5114549;28;20020;-76
2021/06/16 11:33:23;;;;;;;0.45;0.45;;;31.70;49.20;;;;;;5113921;28;20034;-77
2021/06/16 11:35:52;;;;;;;0.60;0.60;;;32.10;49.00;;;;;;5114401;28;20024;-76
2021/06/16 11:38:17;;;;;;;0.75;0.50;;;32.60;48.50;;;;;;5095967;28;20141;-76
2021/06/16 11:41:21;;;;;;;0.60;0.60;;;33.00;48.20;;;;;;5114341;28;20492;-75
2021/06/16 11:43:49;;;;;;;0.80;0.70;;;33.40;48.00;;;;;;5114238;28;20026;-76
2021/06/16 11:46:15;;;;;;;1.57;0.60;;;33.60;48.50;;;;;;5113960;28;20019;-77
2021/06/16 11:48:41;;;;;;;0.70;0.63;;;33.80;47.90;;;;;;5113687;28;20276;-76
2021/06/16 11:51:08;;;;;;;0.93;0.82;;;34.00;47.50;;;;;;5095758;28;20421;-73
2021/06/16 11:53:35;;;;;;;1.05;0.95;;;34.30;48.10;;;;;;5114076;28;20023;-77
2021/06/16 11:56:03;;;;;;;0.90;0.70;;;34.40;47.30;;;;;;5114061;28;20472;-76
2021/06/16 11:58:31;;;;;;;0.90;0.90;;;34.60;47.20;;;;;;5113835;28;20051;-76
2021/06/16 12:01:07;;;;;;;0.52;0.52;;;34.70;47.20;;;;;;5105494;28;20457;-76
2021/06/16 12:03:34;;;;;;;0.85;0.85;;;34.90;47.00;;;;;;5110830;28;20096;-74
2021/06/16 12:06:05;;;;;;;1.05;0.95;;;34.90;47.00;;;;;;5112745;28;20020;-74
2021/06/16 12:08:31;;;;;;;1.20;1.13;;;34.90;46.80;;;;;;5112760;28;20115;-78
2021/06/16 12:10:57;;;;;;;1.02;0.98;;;34.90;46.90;;;;;;5095251;28;20023;-78
2021/06/16 12:13:23;;;;;;;0.70;0.70;;;34.80;47.80;;;;;;5095526;28;20076;-77
2021/06/16 12:15:49;;;;;;;1.27;1.17;;;34.70;47.20;;;;;;5095597;28;20399;-75
2021/06/16 12:18:16;;;;;;;0.70;0.70;;;34.70;47.30;;;;;;5108818;28;20058;-76
2021/06/16 12:20:51;;;;;;;0.90;0.90;;;34.50;47.50;;;;;;5092302;28;20123;-75
2021/06/16 12:23:35;;;;;;;1.08;1.08;;;34.40;47.60;;;;;;5092812;28;20055;-76
2021/06/16 12:26:11;;;;;;;0.70;0.70;;;34.50;47.60;;;;;;5110846;28;20392;-76
2021/06/16 12:28:39;;;;;;;0.90;0.90;;;34.60;47.60;;;;;;5092424;28;20016;-75
2021/06/16 12:31:15;;;;;;;0.82;0.82;;;34.60;47.60;;;;;;5110379;28;20043;-76
2021/06/16 12:34:01;;;;;;;0.73;0.73;;;34.30;47.60;;;;;;5109587;28;20016;-77
2021/06/16 12:36:30;;;;;;;0.90;0.90;;;34.10;48.00;;;;;;5110423;28;20020;-77
2021/06/16 12:39:14;;;;;;;0.85;0.80;;;34.00;48.20;;;;;;5112179;28;20524;-76
2021/06/16 12:41:48;;;;;;;0.75;0.75;;;34.20;47.80;;;;;;5113521;28;20115;-77
2021/06/16 12:44:35;;;;;;;1.38;1.10;;;34.50;47.50;;;;;;5112917;28;20072;-77
2021/06/16 12:47:05;;;;;;;0.85;0.85;;;34.90;46.80;;;;;;5113106;28;20038;-76
2021/06/16 12:49:35;;;;;;;0.63;0.50;;;35.10;46.50;;;;;;5113413;28;20372;-77
2021/06/16 12:52:04;;;;;;;0.82;0.82;;;35.40;46.30;;;;;;5095259;28;20028;-75
2021/06/16 12:54:31;;;;;;;1.65;0.75;;;35.50;46.10;;;;;;5113396;28;20024;-76
2021/06/16 12:57:06;;;;;;;0.93;0.90;;;35.40;46.10;;;;;;5113271;28;20020;-75